Aviation Digital Data Service (ADDS)

Output produced by METARs form (0323 UTC 21 September 2017)
found at http://www.aviationweather.gov/adds/metars/
 
VDSR 210300Z VRB02KT 9999 SCT017 29/24 Q1007
TAF VDSR 202300Z 2100/2118 32005KT 9999 SCT017 
     TEMPO 2107/2112 4500 TSRA SCT015 FEW017CB BKN040